sensor_id;sensor_type;location;lat;lon;timestamp;temperature;humidity
15133;DHT22;7667;51.232;17.110;2023-04-26T00:02:05;3.00;99.90
15133;DHT22;7667;51.232;17.110;2023-04-26T00:04:33;3.00;99.90
15133;DHT22;7667;51.232;17.110;2023-04-26T00:07:01;3.00;99.90
15133;DHT22;7667;51.232;17.110;2023-04-26T00:09:29;2.90;99.90
15133;DHT22;7667;51.232;17.110;2023-04-26T00:11:58;2.80;99.90
15133;DHT22;7667;51.232;17.110;2023-04-26T00:14:26;2.80;99.90
15133;DHT22;7667;51.232;17.110;2023-04-26T00:16:53;2.70;99.90
15133;DHT22;7667;51.232;17.110;2023-04-26T00:19:21;2.70;99.90
15133;DHT22;7667;51.232;17.110;2023-04-26T00:21:50;2.70;99.90
15133;DHT22;7667;51.232;17.110;2023-04-26T00:24:17;2.60;99.90
15133;DHT22;7667;51.232;17.110;2023-04-26T00:26:45;2.50;99.90
15133;DHT22;7667;51.232;17.110;2023-04-26T00:29:12;2.50;99.90
15133;DHT22;7667;51.232;17.110;2023-04-26T00:31:40;2.40;99.90
15133;DHT22;7667;51.232;17.110;2023-04-26T00:34:07;2.40;99.90
15133;DHT22;7667;51.232;17.110;2023-04-26T00:36:35;2.30;99.90
15133;DHT22;7667;51.232;17.110;2023-04-26T00:39:03;2.30;99.90
15133;DHT22;7667;51.232;17.110;2023-04-26T00:41:31;2.30;99.90
15133;DHT22;7667;51.232;17.110;2023-04-26T00:43:58;2.30;99.90
15133;DHT22;7667;51.232;17.110;2023-04-26T00:46:26;2.30;99.90
15133;DHT22;7667;51.232;17.110;2023-04-26T00:48:55;2.30;99.90
15133;DHT22;7667;51.232;17.110;2023-04-26T00:51:22;2.30;99.90
15133;DHT22;7667;51.232;17.110;2023-04-26T00:53:50;2.30;99.90
15133;DHT22;7667;51.232;17.110;2023-04-26T00:56:18;2.30;99.90
15133;DHT22;7667;51.232;17.110;2023-04-26T00:58:46;2.40;99.90
15133;DHT22;7667;51.232;17.110;2023-04-26T01:01:13;2.30;99.90
15133;DHT22;7667;51.232;17.110;2023-04-26T01:03:41;2.40;99.90
15133;DHT22;7667;51.232;17.110;2023-04-26T01:06:10;2.40;99.90
15133;DHT22;7667;51.232;17.110;2023-04-26T01:08:38;2.50;99.90
15133;DHT22;7667;51.232;17.110;2023-04-26T01:11:07;2.60;99.90
15133;DHT22;7667;51.232;17.110;2023-04-26T01:13:35;2.60;99.90
15133;DHT22;7667;51.232;17.110;2023-04-26T01:16:03;2.60;99.90
15133;DHT22;7667;51.232;17.110;2023-04-26T01:18:34;2.50;99.90
15133;DHT22;7667;51.232;17.110;2023-04-26T01:21:02;2.50;99.90
15133;DHT22;7667;51.232;17.110;2023-04-26T01:23:31;2.50;99.90
15133;DHT22;7667;51.232;17.110;2023-04-26T01:25:58;2.50;99.90
15133;DHT22;7667;51.232;17.110;2023-04-26T01:28:26;2.40;99.90
15133;DHT22;7667;51.232;17.110;2023-04-26T01:30:53;2.40;99.90
15133;DHT22;7667;51.232;17.110;2023-04-26T01:33:21;2.40;99.90
15133;DHT22;7667;51.232;17.110;2023-04-26T01:35:49;2.30;99.90
15133;DHT22;7667;51.232;17.110;2023-04-26T01:38:16;2.30;99.90
15133;DHT22;7667;51.232;17.110;2023-04-26T01:40:46;2.20;99.90
15133;DHT22;7667;51.232;17.110;2023-04-26T01:43:13;2.10;99.90
15133;DHT22;7667;51.232;17.110;2023-04-26T01:45:48;2.10;99.90
15133;DHT22;7667;51.232;17.110;2023-04-26T01:48:16;2.10;99.90
15133;DHT22;7667;51.232;17.110;2023-04-26T01:50:43;2.00;99.90
15133;DHT22;7667;51.232;17.110;2023-04-26T01:53:11;1.90;99.90
15133;DHT22;7667;51.232;17.110;2023-04-26T01:55:38;1.80;99.90
15133;DHT22;7667;51.232;17.110;2023-04-26T01:58:06;1.80;99.90
15133;DHT22;7667;51.232;17.110;2023-04-26T02:00:34;1.80;99.90
15133;DHT22;7667;51.232;17.110;2023-04-26T02:03:02;1.70;99.90
15133;DHT22;7667;51.232;17.110;2023-04-26T02:05:30;1.70;99.90
15133;DHT22;7667;51.232;17.110;2023-04-26T02:07:57;1.70;99.90
15133;DHT22;7667;51.232;17.110;2023-04-26T02:10:25;1.50;99.90
15133;DHT22;7667;51.232;17.110;2023-04-26T02:12:53;1.50;99.90
15133;DHT22;7667;51.232;17.110;2023-04-26T02:15:20;1.40;99.90
15133;DHT22;7667;51.232;17.110;2023-04-26T02:17:48;1.40;99.90
15133;DHT22;7667;51.232;17.110;2023-04-26T02:20:15;1.30;99.90
15133;DHT22;7667;51.232;17.110;2023-04-26T02:22:43;1.40;99.90
15133;DHT22;7667;51.232;17.110;2023-04-26T02:25:10;1.30;99.90
15133;DHT22;7667;51.232;17.110;2023-04-26T02:27:38;1.40;99.90
15133;DHT22;7667;51.232;17.110;2023-04-26T02:30:06;1.40;99.90
15133;DHT22;7667;51.232;17.110;2023-04-26T02:32:34;1.40;99.90
15133;DHT22;7667;51.232;17.110;2023-04-26T02:35:02;1.40;99.90
15133;DHT22;7667;51.232;17.110;2023-04-26T02:37:31;1.50;99.90
15133;DHT22;7667;51.232;17.110;2023-04-26T02:40:00;1.50;99.90
15133;DHT22;7667;51.232;17.110;2023-04-26T02:42:27;1.50;99.90
15133;DHT22;7667;51.232;17.110;2023-04-26T02:44:55;1.60;99.90
15133;DHT22;7667;51.232;17.110;2023-04-26T02:47:23;1.60;99.90
15133;DHT22;7667;51.232;17.110;2023-04-26T02:49:50;1.50;99.90
15133;DHT22;7667;51.232;17.110;2023-04-26T02:52:18;1.50;99.90
15133;DHT22;7667;51.232;17.110;2023-04-26T02:54:46;1.60;99.90
15133;DHT22;7667;51.232;17.110;2023-04-26T02:57:13;1.60;99.90
15133;DHT22;7667;51.232;17.110;2023-04-26T02:59:41;1.60;99.90
15133;DHT22;7667;51.232;17.110;2023-04-26T03:02:10;1.60;99.90
15133;DHT22;7667;51.232;17.110;2023-04-26T03:04:38;1.60;99.90
15133;DHT22;7667;51.232;17.110;2023-04-26T03:07:06;1.60;99.90
15133;DHT22;7667;51.232;17.110;2023-04-26T03:09:33;1.60;99.90
15133;DHT22;7667;51.232;17.110;2023-04-26T03:12:07;1.60;99.90
15133;DHT22;7667;51.232;17.110;2023-04-26T03:14:35;1.60;99.90
15133;DHT22;7667;51.232;17.110;2023-04-26T03:17:03;1.60;99.90
15133;DHT22;7667;51.232;17.110;2023-04-26T03:19:30;1.50;99.90
15133;DHT22;7667;51.232;17.110;2023-04-26T03:21:58;1.40;99.90
15133;DHT22;7667;51.232;17.110;2023-04-26T03:24:25;1.40;99.90
15133;DHT22;7667;51.232;17.110;2023-04-26T03:26:53;1.30;99.90
15133;DHT22;7667;51.232;17.110;2023-04-26T03:29:20;1.20;99.90
15133;DHT22;7667;51.232;17.110;2023-04-26T03:31:48;1.20;99.90
15133;DHT22;7667;51.232;17.110;2023-04-26T03:34:16;1.20;99.90
15133;DHT22;7667;51.232;17.110;2023-04-26T03:36:43;1.30;99.90
15133;DHT22;7667;51.232;17.110;2023-04-26T03:39:11;1.30;99.90
15133;DHT22;7667;51.232;17.110;2023-04-26T03:41:38;1.30;99.90
15133;DHT22;7667;51.232;17.110;2023-04-26T03:44:06;1.30;99.90
15133;DHT22;7667;51.232;17.110;2023-04-26T03:46:34;1.30;99.90
15133;DHT22;7667;51.232;17.110;2023-04-26T03:49:02;1.30;99.90
15133;DHT22;7667;51.232;17.110;2023-04-26T03:51:31;1.30;99.90
15133;DHT22;7667;51.232;17.110;2023-04-26T03:53:58;1.30;99.90
15133;DHT22;7667;51.232;17.110;2023-04-26T03:56:26;1.30;99.90
15133;DHT22;7667;51.232;17.110;2023-04-26T03:58:54;1.30;99.90
15133;DHT22;7667;51.232;17.110;2023-04-26T04:01:21;1.40;99.90
15133;DHT22;7667;51.232;17.110;2023-04-26T04:03:49;1.40;99.90
15133;DHT22;7667;51.232;17.110;2023-04-26T04:06:17;1.40;99.90
15133;DHT22;7667;51.232;17.110;2023-04-26T04:08:45;1.40;99.90
15133;DHT22;7667;51.232;17.110;2023-04-26T04:11:12;1.40;99.90
15133;DHT22;7667;51.232;17.110;2023-04-26T04:13:42;1.30;99.90
15133;DHT22;7667;51.232;17.110;2023-04-26T04:16:10;1.40;99.90
15133;DHT22;7667;51.232;17.110;2023-04-26T04:18:38;1.60;99.90
15133;DHT22;7667;51.232;17.110;2023-04-26T04:21:05;1.70;99.90
15133;DHT22;7667;51.232;17.110;2023-04-26T04:23:33;1.80;99.90
15133;DHT22;7667;51.232;17.110;2023-04-26T04:26:00;1.90;99.90
15133;DHT22;7667;51.232;17.110;2023-04-26T04:28:29;2.10;99.90
15133;DHT22;7667;51.232;17.110;2023-04-26T04:30:57;2.20;99.90
15133;DHT22;7667;51.232;17.110;2023-04-26T04:33:24;2.30;99.90
15133;DHT22;7667;51.232;17.110;2023-04-26T04:35:54;2.30;99.90
15133;DHT22;7667;51.232;17.110;2023-04-26T04:38:22;2.40;99.90
15133;DHT22;7667;51.232;17.110;2023-04-26T04:40:50;2.40;99.90
15133;DHT22;7667;51.232;17.110;2023-04-26T04:43:18;2.30;99.90
15133;DHT22;7667;51.232;17.110;2023-04-26T04:45:46;2.30;99.90
15133;DHT22;7667;51.232;17.110;2023-04-26T04:48:15;2.20;99.90
15133;DHT22;7667;51.232;17.110;2023-04-26T04:50:43;2.20;99.90
15133;DHT22;7667;51.232;17.110;2023-04-26T04:53:10;2.20;99.90
15133;DHT22;7667;51.232;17.110;2023-04-26T04:55:41;2.20;99.90
15133;DHT22;7667;51.232;17.110;2023-04-26T04:58:08;2.20;99.90
15133;DHT22;7667;51.232;17.110;2023-04-26T05:00:37;2.30;99.90
15133;DHT22;7667;51.232;17.110;2023-04-26T05:03:04;2.40;99.90
15133;DHT22;7667;51.232;17.110;2023-04-26T05:05:34;2.50;99.90
15133;DHT22;7667;51.232;17.110;2023-04-26T05:08:02;2.50;99.90
15133;DHT22;7667;51.232;17.110;2023-04-26T05:10:30;2.60;99.90
15133;DHT22;7667;51.232;17.110;2023-04-26T05:13:01;2.60;99.90
15133;DHT22;7667;51.232;17.110;2023-04-26T05:15:29;2.70;99.90
15133;DHT22;7667;51.232;17.110;2023-04-26T05:17:56;2.80;99.90
15133;DHT22;7667;51.232;17.110;2023-04-26T05:20:25;2.90;99.90
15133;DHT22;7667;51.232;17.110;2023-04-26T05:22:53;2.90;99.90
15133;DHT22;7667;51.232;17.110;2023-04-26T05:25:20;3.00;99.90
15133;DHT22;7667;51.232;17.110;2023-04-26T05:27:49;3.10;99.90
15133;DHT22;7667;51.232;17.110;2023-04-26T05:30:16;3.20;99.90
15133;DHT22;7667;51.232;17.110;2023-04-26T05:32:44;3.30;99.90
15133;DHT22;7667;51.232;17.110;2023-04-26T05:35:12;3.30;99.90
15133;DHT22;7667;51.232;17.110;2023-04-26T05:37:39;3.40;99.90
15133;DHT22;7667;51.232;17.110;2023-04-26T05:40:08;3.50;99.90
15133;DHT22;7667;51.232;17.110;2023-04-26T05:42:38;3.50;99.90
15133;DHT22;7667;51.232;17.110;2023-04-26T05:45:06;3.60;99.90
15133;DHT22;7667;51.232;17.110;2023-04-26T05:47:34;3.60;99.90
15133;DHT22;7667;51.232;17.110;2023-04-26T05:50:02;3.70;99.90
15133;DHT22;7667;51.232;17.110;2023-04-26T05:52:30;3.80;99.90
15133;DHT22;7667;51.232;17.110;2023-04-26T05:54:58;3.80;99.90
15133;DHT22;7667;51.232;17.110;2023-04-26T05:57:29;3.90;99.90
15133;DHT22;7667;51.232;17.110;2023-04-26T05:59:57;4.00;99.90
15133;DHT22;7667;51.232;17.110;2023-04-26T06:02:24;4.00;99.90
15133;DHT22;7667;51.232;17.110;2023-04-26T06:04:52;4.10;99.90
15133;DHT22;7667;51.232;17.110;2023-04-26T06:07:20;4.20;99.90
15133;DHT22;7667;51.232;17.110;2023-04-26T06:09:48;4.30;99.90
15133;DHT22;7667;51.232;17.110;2023-04-26T06:12:15;4.30;99.90
15133;DHT22;7667;51.232;17.110;2023-04-26T06:14:43;4.40;99.90
15133;DHT22;7667;51.232;17.110;2023-04-26T06:17:11;4.50;99.90
15133;DHT22;7667;51.232;17.110;2023-04-26T06:19:38;4.70;99.90
15133;DHT22;7667;51.232;17.110;2023-04-26T06:22:06;4.80;99.90
15133;DHT22;7667;51.232;17.110;2023-04-26T06:24:33;4.80;99.90
15133;DHT22;7667;51.232;17.110;2023-04-26T06:27:01;4.90;99.90
15133;DHT22;7667;51.232;17.110;2023-04-26T06:29:31;4.90;99.90
15133;DHT22;7667;51.232;17.110;2023-04-26T06:31:59;4.90;99.90
15133;DHT22;7667;51.232;17.110;2023-04-26T06:34:27;5.00;99.90
15133;DHT22;7667;51.232;17.110;2023-04-26T06:36:55;5.00;99.90
15133;DHT22;7667;51.232;17.110;2023-04-26T06:39:22;4.90;99.90
15133;DHT22;7667;51.232;17.110;2023-04-26T06:41:50;5.00;99.90
15133;DHT22;7667;51.232;17.110;2023-04-26T06:44:18;5.10;99.90
15133;DHT22;7667;51.232;17.110;2023-04-26T06:46:46;5.20;99.90
15133;DHT22;7667;51.232;17.110;2023-04-26T06:49:13;5.40;99.90
15133;DHT22;7667;51.232;17.110;2023-04-26T06:51:42;5.40;99.90
15133;DHT22;7667;51.232;17.110;2023-04-26T06:54:11;5.50;99.90
15133;DHT22;7667;51.232;17.110;2023-04-26T06:56:39;5.50;99.90
15133;DHT22;7667;51.232;17.110;2023-04-26T06:59:07;5.60;99.90
15133;DHT22;7667;51.232;17.110;2023-04-26T07:01:34;5.80;99.90
15133;DHT22;7667;51.232;17.110;2023-04-26T07:04:03;5.80;99.90
15133;DHT22;7667;51.232;17.110;2023-04-26T07:06:37;5.90;99.90
15133;DHT22;7667;51.232;17.110;2023-04-26T07:09:05;6.00;99.90
15133;DHT22;7667;51.232;17.110;2023-04-26T07:11:33;6.00;99.90
15133;DHT22;7667;51.232;17.110;2023-04-26T07:14:01;6.10;99.90
15133;DHT22;7667;51.232;17.110;2023-04-26T07:16:29;6.20;99.90
15133;DHT22;7667;51.232;17.110;2023-04-26T07:18:57;6.10;99.90
15133;DHT22;7667;51.232;17.110;2023-04-26T07:21:25;6.20;99.90
15133;DHT22;7667;51.232;17.110;2023-04-26T07:23:57;6.20;99.90
15133;DHT22;7667;51.232;17.110;2023-04-26T07:26:25;6.40;99.90
15133;DHT22;7667;51.232;17.110;2023-04-26T07:28:52;6.70;99.90
15133;DHT22;7667;51.232;17.110;2023-04-26T07:31:20;7.00;99.90
15133;DHT22;7667;51.232;17.110;2023-04-26T07:33:48;7.10;99.90
15133;DHT22;7667;51.232;17.110;2023-04-26T07:36:16;7.00;99.90
15133;DHT22;7667;51.232;17.110;2023-04-26T07:38:44;6.90;99.90
15133;DHT22;7667;51.232;17.110;2023-04-26T07:41:12;6.80;99.90
15133;DHT22;7667;51.232;17.110;2023-04-26T07:43:40;6.70;99.90
15133;DHT22;7667;51.232;17.110;2023-04-26T07:46:07;6.50;99.90
15133;DHT22;7667;51.232;17.110;2023-04-26T07:48:35;6.60;99.90
15133;DHT22;7667;51.232;17.110;2023-04-26T07:51:08;6.90;99.90
15133;DHT22;7667;51.232;17.110;2023-04-26T07:53:38;7.00;99.90
15133;DHT22;7667;51.232;17.110;2023-04-26T07:56:06;7.00;99.90
15133;DHT22;7667;51.232;17.110;2023-04-26T07:58:36;6.80;99.90
15133;DHT22;7667;51.232;17.110;2023-04-26T08:01:05;6.80;99.90
15133;DHT22;7667;51.232;17.110;2023-04-26T08:03:33;7.10;99.90
15133;DHT22;7667;51.232;17.110;2023-04-26T08:06:01;7.20;99.90
15133;DHT22;7667;51.232;17.110;2023-04-26T08:08:30;7.10;99.90
15133;DHT22;7667;51.232;17.110;2023-04-26T08:10:59;7.20;99.90
15133;DHT22;7667;51.232;17.110;2023-04-26T08:13:27;7.50;99.90
15133;DHT22;7667;51.232;17.110;2023-04-26T08:15:56;7.80;99.90
15133;DHT22;7667;51.232;17.110;2023-04-26T08:18:24;8.00;99.90
15133;DHT22;7667;51.232;17.110;2023-04-26T08:20:52;7.70;99.90
15133;DHT22;7667;51.232;17.110;2023-04-26T08:23:21;7.10;99.90
15133;DHT22;7667;51.232;17.110;2023-04-26T08:25:49;7.20;99.90
15133;DHT22;7667;51.232;17.110;2023-04-26T08:28:16;7.60;99.90
15133;DHT22;7667;51.232;17.110;2023-04-26T08:30:46;7.80;99.90
15133;DHT22;7667;51.232;17.110;2023-04-26T08:33:14;7.90;99.90
15133;DHT22;7667;51.232;17.110;2023-04-26T08:35:44;7.90;99.90
15133;DHT22;7667;51.232;17.110;2023-04-26T08:38:12;7.60;99.90
15133;DHT22;7667;51.232;17.110;2023-04-26T08:40:40;7.50;99.90
15133;DHT22;7667;51.232;17.110;2023-04-26T08:43:10;7.90;99.90
15133;DHT22;7667;51.232;17.110;2023-04-26T08:45:39;8.40;99.90
15133;DHT22;7667;51.232;17.110;2023-04-26T08:48:10;8.40;99.90
15133;DHT22;7667;51.232;17.110;2023-04-26T08:50:45;8.30;99.90
15133;DHT22;7667;51.232;17.110;2023-04-26T08:53:14;8.20;99.90
15133;DHT22;7667;51.232;17.110;2023-04-26T08:55:48;8.20;99.90
15133;DHT22;7667;51.232;17.110;2023-04-26T08:58:19;8.40;99.90
15133;DHT22;7667;51.232;17.110;2023-04-26T09:00:48;8.50;99.90
15133;DHT22;7667;51.232;17.110;2023-04-26T09:03:16;8.50;99.90
15133;DHT22;7667;51.232;17.110;2023-04-26T09:05:44;8.50;99.90
15133;DHT22;7667;51.232;17.110;2023-04-26T09:08:15;8.30;99.90
15133;DHT22;7667;51.232;17.110;2023-04-26T09:10:43;8.40;99.90
15133;DHT22;7667;51.232;17.110;2023-04-26T09:13:11;8.80;99.90
15133;DHT22;7667;51.232;17.110;2023-04-26T09:15:40;8.70;99.90
15133;DHT22;7667;51.232;17.110;2023-04-26T09:18:22;8.40;99.90
15133;DHT22;7667;51.232;17.110;2023-04-26T09:21:03;8.60;99.90
15133;DHT22;7667;51.232;17.110;2023-04-26T09:23:32;8.30;99.90
15133;DHT22;7667;51.232;17.110;2023-04-26T09:26:18;8.30;99.90
15133;DHT22;7667;51.232;17.110;2023-04-26T09:28:47;8.50;99.90
15133;DHT22;7667;51.232;17.110;2023-04-26T09:31:37;8.90;99.90
15133;DHT22;7667;51.232;17.110;2023-04-26T09:34:06;9.10;99.90
15133;DHT22;7667;51.232;17.110;2023-04-26T09:36:52;9.10;99.90
15133;DHT22;7667;51.232;17.110;2023-04-26T09:41:59;8.20;99.90
15133;DHT22;7667;51.232;17.110;2023-04-26T09:44:29;8.20;99.90
15133;DHT22;7667;51.232;17.110;2023-04-26T09:47:10;8.10;99.90
15133;DHT22;7667;51.232;17.110;2023-04-26T09:49:49;8.20;99.90
15133;DHT22;7667;51.232;17.110;2023-04-26T09:52:18;8.30;99.90
15133;DHT22;7667;51.232;17.110;2023-04-26T09:54:53;8.20;99.90
15133;DHT22;7667;51.232;17.110;2023-04-26T09:57:22;8.30;99.90
15133;DHT22;7667;51.232;17.110;2023-04-26T09:59:51;8.60;99.90
15133;DHT22;7667;51.232;17.110;2023-04-26T10:02:23;8.80;99.90
15133;DHT22;7667;51.232;17.110;2023-04-26T10:04:55;8.40;99.90
15133;DHT22;7667;51.232;17.110;2023-04-26T10:07:24;8.20;99.90
15133;DHT22;7667;51.232;17.110;2023-04-26T10:09:53;8.10;99.90
15133;DHT22;7667;51.232;17.110;2023-04-26T10:12:21;8.00;99.90
15133;DHT22;7667;51.232;17.110;2023-04-26T10:14:49;7.70;99.90
15133;DHT22;7667;51.232;17.110;2023-04-26T10:17:18;7.90;99.90
15133;DHT22;7667;51.232;17.110;2023-04-26T10:19:50;8.10;99.90
15133;DHT22;7667;51.232;17.110;2023-04-26T10:22:26;8.30;99.90
15133;DHT22;7667;51.232;17.110;2023-04-26T10:24:56;8.60;99.90
15133;DHT22;7667;51.232;17.110;2023-04-26T10:30:12;9.00;99.20
15133;DHT22;7667;51.232;17.110;2023-04-26T10:35:26;8.50;98.80
15133;DHT22;7667;51.232;17.110;2023-04-26T10:40:32;8.80;99.90
15133;DHT22;7667;51.232;17.110;2023-04-26T10:45:43;9.00;99.90
15133;DHT22;7667;51.232;17.110;2023-04-26T10:48:28;9.20;99.90
15133;DHT22;7667;51.232;17.110;2023-04-26T10:53:31;10.30;99.90
15133;DHT22;7667;51.232;17.110;2023-04-26T10:55:59;10.60;98.60
15133;DHT22;7667;51.232;17.110;2023-04-26T11:04:06;9.50;97.40
15133;DHT22;7667;51.232;17.110;2023-04-26T11:06:51;9.40;98.30
15133;DHT22;7667;51.232;17.110;2023-04-26T11:09:40;8.60;99.40
15133;DHT22;7667;51.232;17.110;2023-04-26T11:12:15;8.30;99.90
15133;DHT22;7667;51.232;17.110;2023-04-26T11:14:44;8.30;99.90
15133;DHT22;7667;51.232;17.110;2023-04-26T11:17:15;8.40;99.90
15133;DHT22;7667;51.232;17.110;2023-04-26T11:19:45;8.80;99.90
15133;DHT22;7667;51.232;17.110;2023-04-26T11:22:13;9.10;98.30
15133;DHT22;7667;51.232;17.110;2023-04-26T11:24:42;9.00;97.80
15133;DHT22;7667;51.232;17.110;2023-04-26T11:27:10;9.10;98.50
15133;DHT22;7667;51.232;17.110;2023-04-26T11:29:38;9.00;95.20
15133;DHT22;7667;51.232;17.110;2023-04-26T11:32:06;8.90;96.30
15133;DHT22;7667;51.232;17.110;2023-04-26T11:34:36;9.00;97.10
15133;DHT22;7667;51.232;17.110;2023-04-26T11:37:06;9.10;97.90
15133;DHT22;7667;51.232;17.110;2023-04-26T11:39:35;9.30;97.40
15133;DHT22;7667;51.232;17.110;2023-04-26T11:42:12;9.90;96.90
15133;DHT22;7667;51.232;17.110;2023-04-26T11:44:40;10.80;92.80
15133;DHT22;7667;51.232;17.110;2023-04-26T11:47:08;10.60;92.90
15133;DHT22;7667;51.232;17.110;2023-04-26T11:49:36;9.70;93.00
15133;DHT22;7667;51.232;17.110;2023-04-26T11:52:05;9.00;94.60
15133;DHT22;7667;51.232;17.110;2023-04-26T11:54:35;8.60;96.10
15133;DHT22;7667;51.232;17.110;2023-04-26T11:57:14;8.20;98.60
15133;DHT22;7667;51.232;17.110;2023-04-26T11:59:44;7.80;99.90
15133;DHT22;7667;51.232;17.110;2023-04-26T12:02:12;8.00;99.90
15133;DHT22;7667;51.232;17.110;2023-04-26T12:04:40;9.10;99.90
15133;DHT22;7667;51.232;17.110;2023-04-26T12:07:08;9.50;99.90
15133;DHT22;7667;51.232;17.110;2023-04-26T12:09:39;9.40;97.10
15133;DHT22;7667;51.232;17.110;2023-04-26T12:12:10;9.00;96.60
15133;DHT22;7667;51.232;17.110;2023-04-26T12:14:39;9.00;97.50
15133;DHT22;7667;51.232;17.110;2023-04-26T12:17:07;9.20;96.90
15133;DHT22;7667;51.232;17.110;2023-04-26T12:19:35;9.30;96.80
15133;DHT22;7667;51.232;17.110;2023-04-26T12:22:05;9.50;97.00
15133;DHT22;7667;51.232;17.110;2023-04-26T12:24:34;10.10;96.00
15133;DHT22;7667;51.232;17.110;2023-04-26T12:27:04;11.20;95.10
15133;DHT22;7667;51.232;17.110;2023-04-26T12:29:34;12.80;91.90
15133;DHT22;7667;51.232;17.110;2023-04-26T12:32:02;13.30;90.80
15133;DHT22;7667;51.232;17.110;2023-04-26T12:34:30;12.70;87.40
15133;DHT22;7667;51.232;17.110;2023-04-26T12:36:58;12.00;89.50
15133;DHT22;7667;51.232;17.110;2023-04-26T12:39:26;11.80;83.40
15133;DHT22;7667;51.232;17.110;2023-04-26T12:41:53;11.90;81.90
15133;DHT22;7667;51.232;17.110;2023-04-26T12:44:21;11.80;84.40
15133;DHT22;7667;51.232;17.110;2023-04-26T12:46:49;12.90;83.90
15133;DHT22;7667;51.232;17.110;2023-04-26T12:49:17;13.30;80.40
15133;DHT22;7667;51.232;17.110;2023-04-26T12:51:45;13.50;80.30
15133;DHT22;7667;51.232;17.110;2023-04-26T12:54:13;14.00;79.10
15133;DHT22;7667;51.232;17.110;2023-04-26T12:56:41;13.50;77.70
15133;DHT22;7667;51.232;17.110;2023-04-26T12:59:10;14.50;77.20
15133;DHT22;7667;51.232;17.110;2023-04-26T13:01:38;14.30;76.80
15133;DHT22;7667;51.232;17.110;2023-04-26T13:04:06;12.90;77.50
15133;DHT22;7667;51.232;17.110;2023-04-26T13:06:35;10.90;84.00
15133;DHT22;7667;51.232;17.110;2023-04-26T13:09:03;9.30;90.90
15133;DHT22;7667;51.232;17.110;2023-04-26T13:11:34;8.70;92.80
15133;DHT22;7667;51.232;17.110;2023-04-26T13:14:02;8.40;94.00
15133;DHT22;7667;51.232;17.110;2023-04-26T13:16:31;8.40;94.50
15133;DHT22;7667;51.232;17.110;2023-04-26T13:19:02;8.50;94.60
15133;DHT22;7667;51.232;17.110;2023-04-26T13:21:29;8.60;95.00
15133;DHT22;7667;51.232;17.110;2023-04-26T13:23:57;8.50;93.80
15133;DHT22;7667;51.232;17.110;2023-04-26T13:26:24;8.40;94.20
15133;DHT22;7667;51.232;17.110;2023-04-26T13:28:54;8.50;94.50
15133;DHT22;7667;51.232;17.110;2023-04-26T13:31:22;8.60;94.10
15133;DHT22;7667;51.232;17.110;2023-04-26T13:33:49;8.60;93.30
15133;DHT22;7667;51.232;17.110;2023-04-26T13:36:17;8.80;92.90
15133;DHT22;7667;51.232;17.110;2023-04-26T13:38:45;9.00;92.60
15133;DHT22;7667;51.232;17.110;2023-04-26T13:41:12;9.20;92.70
15133;DHT22;7667;51.232;17.110;2023-04-26T13:43:40;9.40;91.70
15133;DHT22;7667;51.232;17.110;2023-04-26T13:46:08;9.40;92.70
15133;DHT22;7667;51.232;17.110;2023-04-26T13:48:35;9.60;92.00
15133;DHT22;7667;51.232;17.110;2023-04-26T13:51:04;9.60;91.30
15133;DHT22;7667;51.232;17.110;2023-04-26T13:53:33;9.60;92.00
15133;DHT22;7667;51.232;17.110;2023-04-26T13:56:00;9.70;92.70
15133;DHT22;7667;51.232;17.110;2023-04-26T13:58:28;9.90;90.80
15133;DHT22;7667;51.232;17.110;2023-04-26T14:00:55;9.90;89.80
15133;DHT22;7667;51.232;17.110;2023-04-26T14:03:23;10.50;88.30
15133;DHT22;7667;51.232;17.110;2023-04-26T14:05:51;10.70;85.20
15133;DHT22;7667;51.232;17.110;2023-04-26T14:08:19;10.50;85.90
15133;DHT22;7667;51.232;17.110;2023-04-26T14:10:47;10.10;88.20
15133;DHT22;7667;51.232;17.110;2023-04-26T14:13:14;10.00;90.10
15133;DHT22;7667;51.232;17.110;2023-04-26T14:15:42;10.30;88.80
15133;DHT22;7667;51.232;17.110;2023-04-26T14:18:10;11.00;88.10
15133;DHT22;7667;51.232;17.110;2023-04-26T14:20:37;12.60;85.70
15133;DHT22;7667;51.232;17.110;2023-04-26T14:23:05;13.80;74.60
15133;DHT22;7667;51.232;17.110;2023-04-26T14:25:33;15.20;72.90
15133;DHT22;7667;51.232;17.110;2023-04-26T14:28:01;14.90;70.20
15133;DHT22;7667;51.232;17.110;2023-04-26T14:30:29;14.90;68.30
15133;DHT22;7667;51.232;17.110;2023-04-26T14:32:57;15.50;68.40
15133;DHT22;7667;51.232;17.110;2023-04-26T14:35:25;15.00;66.70
15133;DHT22;7667;51.232;17.110;2023-04-26T14:37:52;12.80;71.30
15133;DHT22;7667;51.232;17.110;2023-04-26T14:40:20;10.70;77.60
15133;DHT22;7667;51.232;17.110;2023-04-26T14:42:48;10.00;81.80
15133;DHT22;7667;51.232;17.110;2023-04-26T14:45:15;9.70;83.60
15133;DHT22;7667;51.232;17.110;2023-04-26T14:47:43;9.60;85.60
15133;DHT22;7667;51.232;17.110;2023-04-26T14:50:11;9.50;87.20
15133;DHT22;7667;51.232;17.110;2023-04-26T14:52:40;9.20;89.30
15133;DHT22;7667;51.232;17.110;2023-04-26T14:55:08;9.00;91.20
15133;DHT22;7667;51.232;17.110;2023-04-26T14:57:36;8.70;92.80
15133;DHT22;7667;51.232;17.110;2023-04-26T15:00:07;8.40;94.30
15133;DHT22;7667;51.232;17.110;2023-04-26T15:02:35;8.30;95.40
15133;DHT22;7667;51.232;17.110;2023-04-26T15:05:03;8.30;94.90
15133;DHT22;7667;51.232;17.110;2023-04-26T15:07:32;8.30;94.80
15133;DHT22;7667;51.232;17.110;2023-04-26T15:10:00;8.50;95.00
15133;DHT22;7667;51.232;17.110;2023-04-26T15:12:27;8.60;94.10
15133;DHT22;7667;51.232;17.110;2023-04-26T15:14:55;8.70;92.70
15133;DHT22;7667;51.232;17.110;2023-04-26T15:17:23;8.60;92.60
15133;DHT22;7667;51.232;17.110;2023-04-26T15:19:50;8.60;93.00
15133;DHT22;7667;51.232;17.110;2023-04-26T15:22:18;8.70;93.20
15133;DHT22;7667;51.232;17.110;2023-04-26T15:24:45;8.80;93.40
15133;DHT22;7667;51.232;17.110;2023-04-26T15:27:15;9.20;94.20
15133;DHT22;7667;51.232;17.110;2023-04-26T15:29:43;10.80;92.40
15133;DHT22;7667;51.232;17.110;2023-04-26T15:32:11;12.10;90.10
15133;DHT22;7667;51.232;17.110;2023-04-26T15:34:40;13.30;86.50
15133;DHT22;7667;51.232;17.110;2023-04-26T15:37:12;14.60;80.10
15133;DHT22;7667;51.232;17.110;2023-04-26T15:39:39;15.10;78.20
15133;DHT22;7667;51.232;17.110;2023-04-26T15:42:07;14.00;75.80
15133;DHT22;7667;51.232;17.110;2023-04-26T15:44:34;13.90;77.00
15133;DHT22;7667;51.232;17.110;2023-04-26T15:47:03;13.30;75.60
15133;DHT22;7667;51.232;17.110;2023-04-26T15:49:30;12.80;78.90
15133;DHT22;7667;51.232;17.110;2023-04-26T15:51:58;12.10;81.60
15133;DHT22;7667;51.232;17.110;2023-04-26T15:54:25;11.50;84.00
15133;DHT22;7667;51.232;17.110;2023-04-26T15:56:53;11.10;87.00
15133;DHT22;7667;51.232;17.110;2023-04-26T15:59:21;11.50;86.50
15133;DHT22;7667;51.232;17.110;2023-04-26T16:01:49;10.80;86.90
15133;DHT22;7667;51.232;17.110;2023-04-26T16:04:16;10.70;88.30
15133;DHT22;7667;51.232;17.110;2023-04-26T16:06:44;11.50;85.90
15133;DHT22;7667;51.232;17.110;2023-04-26T16:09:12;11.80;85.40
15133;DHT22;7667;51.232;17.110;2023-04-26T16:11:51;12.20;83.20
15133;DHT22;7667;51.232;17.110;2023-04-26T16:14:19;11.30;88.00
15133;DHT22;7667;51.232;17.110;2023-04-26T16:16:47;10.80;91.20